Time;durP1;ratioP1;P1;durP2;ratioP2;P2;SDS_P1;SDS_P2;PMS_P1;PMS_P2;Temp;Humidity;BMP_temperature;BMP_pressure;BME280_temperature;BME280_humidity;BME280_pressure;Samples;Min_cycle;Max_cycle;Signal;HPM_P1;HPM_P2
2021/05/18 00:01:02;;;;;;;10.00;3.92;;;8.10;99.90;;;;;;5006807;28;20030;-81
2021/05/18 00:03:28;;;;;;;11.55;4.13;;;8.10;99.90;;;;;;5005537;28;20022;-80
2021/05/18 00:05:57;;;;;;;10.10;4.00;;;8.10;99.90;;;;;;5021550;28;20060;-80
2021/05/18 00:08:24;;;;;;;9.93;4.17;;;8.10;99.90;;;;;;5021829;28;20026;-82
2021/05/18 00:13:43;;;;;;;9.60;3.97;;;7.90;99.90;;;;;;5006466;28;20030;-81
2021/05/18 00:16:09;;;;;;;6.88;3.75;;;7.90;99.90;;;;;;5006449;28;20053;-81
2021/05/18 00:18:36;;;;;;;7.45;3.75;;;7.90;99.90;;;;;;5006435;28;20058;-81
2021/05/18 00:21:03;;;;;;;6.95;3.38;;;7.90;99.90;;;;;;5006494;28;20085;-81
2021/05/18 00:23:29;;;;;;;7.25;4.28;;;7.90;99.90;;;;;;5005150;28;20039;-82
2021/05/18 00:25:55;;;;;;;9.93;3.95;;;7.90;99.90;;;;;;4988073;28;20050;-82
2021/05/18 00:28:21;;;;;;;10.93;4.38;;;7.90;99.90;;;;;;4986828;28;20035;-80
2021/05/18 00:30:47;;;;;;;9.77;4.18;;;7.90;99.90;;;;;;4986755;28;20027;-80
2021/05/18 00:33:16;;;;;;;10.07;4.22;;;7.80;99.90;;;;;;4986680;28;20392;-81
2021/05/18 00:35:43;;;;;;;9.05;3.70;;;7.70;99.90;;;;;;5001227;28;20061;-80
2021/05/18 00:38:10;;;;;;;8.30;3.72;;;7.60;99.90;;;;;;4986704;28;20074;-80
2021/05/18 00:40:36;;;;;;;8.80;4.13;;;7.60;99.90;;;;;;5003899;28;20056;-80
2021/05/18 00:43:02;;;;;;;9.13;3.97;;;7.70;99.90;;;;;;5021246;28;20098;-80
2021/05/18 00:45:32;;;;;;;8.93;4.53;;;7.70;99.90;;;;;;5006064;28;20057;-75
2021/05/18 00:47:59;;;;;;;5.65;3.88;;;7.70;99.90;;;;;;5006018;28;20041;-80
2021/05/18 00:50:25;;;;;;;7.90;3.92;;;7.60;99.90;;;;;;5006093;28;20061;-80
2021/05/18 00:52:51;;;;;;;8.70;3.72;;;7.60;99.90;;;;;;4988560;28;20037;-80
2021/05/18 00:55:39;;;;;;;6.35;3.55;;;7.60;99.90;;;;;;5021819;28;20487;-81
2021/05/18 00:58:32;;;;;;;7.53;3.72;;;7.60;99.90;;;;;;5010209;28;20034;-81
2021/05/18 01:01:20;;;;;;;7.15;4.03;;;7.60;99.90;;;;;;5009977;28;20045;-78
2021/05/18 01:03:50;;;;;;;8.68;3.92;;;7.70;99.90;;;;;;5024845;28;20090;-80
2021/05/18 01:06:30;;;;;;;9.75;4.35;;;7.70;99.90;;;;;;5003072;23;20066;-82
2021/05/18 01:09:09;;;;;;;8.90;3.05;;;7.70;99.90;;;;;;4970346;29;20122;-81
2021/05/18 01:11:40;;;;;;;6.75;3.90;;;7.80;99.90;;;;;;4971216;28;20079;-82
2021/05/18 01:14:12;;;;;;;7.90;4.57;;;7.70;99.90;;;;;;4970137;29;20027;-80
2021/05/18 01:16:41;;;;;;;10.68;5.05;;;7.80;99.90;;;;;;4969897;29;20062;-80
2021/05/18 01:19:07;;;;;;;8.07;3.58;;;7.80;99.90;;;;;;4971266;28;20043;-81
2021/05/18 01:21:35;;;;;;;6.82;3.15;;;7.80;99.90;;;;;;4986242;28;20031;-81
2021/05/18 01:24:01;;;;;;;7.63;4.05;;;7.90;99.90;;;;;;4969849;29;20027;-81
2021/05/18 01:26:29;;;;;;;11.60;4.15;;;8.10;99.90;;;;;;4970986;28;20031;-81
2021/05/18 01:28:55;;;;;;;8.55;4.35;;;8.00;99.90;;;;;;4969791;29;20098;-82
2021/05/18 01:31:24;;;;;;;8.25;3.45;;;8.00;99.90;;;;;;4969832;29;20038;-81
2021/05/18 01:33:53;;;;;;;9.40;3.95;;;7.90;99.90;;;;;;4969813;29;20035;-81
2021/05/18 01:36:23;;;;;;;7.30;3.92;;;8.00;99.90;;;;;;4969877;28;20031;-79
2021/05/18 01:39:23;;;;;;;9.85;4.25;;;8.00;99.90;;;;;;4969460;28;20032;-80
2021/05/18 01:44:53;;;;;;;10.18;4.25;;;8.10;99.90;;;;;;4951375;29;20432;-79
2021/05/18 01:47:19;;;;;;;10.23;4.32;;;8.20;99.90;;;;;;4949908;29;20063;-80
2021/05/18 01:49:47;;;;;;;8.75;4.75;;;8.20;99.90;;;;;;4949963;29;20031;-79
2021/05/18 01:52:12;;;;;;;11.30;4.63;;;8.30;99.90;;;;;;4951103;29;20042;-80
2021/05/18 01:54:38;;;;;;;11.07;5.18;;;8.40;99.90;;;;;;4951140;29;20039;-81
2021/05/18 01:57:17;;;;;;;11.18;4.93;;;8.30;99.90;;;;;;4965571;29;20035;-80
2021/05/18 01:59:49;;;;;;;9.77;4.85;;;8.30;99.90;;;;;;4965666;29;20058;-81
2021/05/18 02:02:20;;;;;;;11.27;5.28;;;8.40;99.90;;;;;;4965160;29;20032;-80
2021/05/18 02:05:10;;;;;;;13.43;4.47;;;8.30;99.90;;;;;;4965305;29;20036;-81
2021/05/18 02:07:47;;;;;;;11.40;4.78;;;8.40;99.90;;;;;;4894881;29;20094;-81
2021/05/18 02:10:16;;;;;;;13.05;5.55;;;8.40;99.90;;;;;;4894705;29;20040;-80
2021/05/18 02:12:55;;;;;;;11.68;5.05;;;8.40;99.90;;;;;;4894744;29;20128;-79
2021/05/18 02:16:10;;;;;;;10.23;5.45;;;8.40;99.90;;;;;;4894544;29;20032;-78
2021/05/18 02:21:38;;;;;;;9.77;5.15;;;8.50;99.90;;;;;;4894374;29;20517;-80
2021/05/18 02:26:49;;;;;;;8.45;4.63;;;8.60;99.90;;;;;;4910259;29;20534;-82
2021/05/18 02:29:15;;;;;;;10.45;5.93;;;8.60;99.90;;;;;;4863760;29;20032;-81
2021/05/18 02:31:43;;;;;;;11.57;5.22;;;8.70;99.90;;;;;;4894320;29;20051;-80
2021/05/18 02:34:38;;;;;;;10.52;5.30;;;8.70;99.90;;;;;;4894225;29;20035;-79
2021/05/18 02:37:04;;;;;;;10.63;5.72;;;8.70;99.90;;;;;;4894023;29;20523;-80
2021/05/18 02:39:30;;;;;;;15.80;5.80;;;8.70;99.90;;;;;;4894116;29;20052;-80
2021/05/18 02:41:56;;;;;;;10.23;6.15;;;8.70;99.90;;;;;;4909877;29;20033;-80
2021/05/18 02:45:07;;;;;;;8.65;5.35;;;8.70;99.90;;;;;;4928494;29;20035;-80
2021/05/18 02:50:03;;;;;;;10.23;4.90;;;8.80;99.90;;;;;;4948798;29;20046;-80
2021/05/18 02:52:32;;;;;;;11.65;5.35;;;8.80;99.90;;;;;;4949863;29;20066;-80
2021/05/18 02:54:57;;;;;;;12.00;6.03;;;8.80;99.90;;;;;;4949982;29;20039;-80
2021/05/18 02:57:34;;;;;;;11.82;5.50;;;8.90;99.90;;;;;;4948398;29;20124;-79
2021/05/18 03:00:04;;;;;;;12.25;4.95;;;8.90;99.90;;;;;;4949657;29;20120;-81
2021/05/18 03:02:29;;;;;;;9.68;5.00;;;8.90;99.90;;;;;;4949664;29;20028;-81
2021/05/18 03:05:16;;;;;;;9.90;5.85;;;9.00;99.90;;;;;;4949704;29;20143;-81
2021/05/18 03:07:42;;;;;;;11.88;5.35;;;9.10;99.90;;;;;;4966517;29;20058;-81
2021/05/18 03:10:08;;;;;;;10.68;6.28;;;9.00;99.90;;;;;;4960917;29;20066;-80
2021/05/18 03:12:34;;;;;;;12.98;5.95;;;9.00;99.90;;;;;;4966651;29;20050;-83
2021/05/18 03:15:00;;;;;;;8.82;5.80;;;9.00;99.90;;;;;;4966691;29;20039;-81
2021/05/18 03:17:26;;;;;;;12.48;6.80;;;9.20;99.90;;;;;;4966508;29;20035;-84
2021/05/18 03:19:51;;;;;;;10.75;5.90;;;9.10;99.90;;;;;;4965600;28;20059;-83
2021/05/18 03:22:17;;;;;;;12.50;6.28;;;9.20;99.90;;;;;;4966655;29;20033;-82
2021/05/18 03:24:43;;;;;;;13.18;6.95;;;9.20;99.90;;;;;;4966556;29;20070;-81
2021/05/18 03:27:12;;;;;;;11.00;6.75;;;9.20;99.90;;;;;;4966299;29;20067;-81
2021/05/18 03:29:38;;;;;;;12.00;6.50;;;9.10;99.90;;;;;;4966518;29;20047;-81
2021/05/18 03:34:50;;;;;;;16.20;7.20;;;9.20;99.90;;;;;;4966479;29;20035;-82
2021/05/18 03:37:25;;;;;;;13.30;7.43;;;9.20;99.90;;;;;;4934064;29;20373;-82
2021/05/18 03:39:54;;;;;;;11.18;7.38;;;9.20;99.90;;;;;;4966296;29;20062;-81
2021/05/18 03:42:28;;;;;;;11.35;7.00;;;9.20;99.90;;;;;;4966370;29;20027;-81
2021/05/18 03:45:05;;;;;;;12.48;6.85;;;9.30;99.90;;;;;;4946334;29;20048;-81
2021/05/18 04:17:16;;;;;;;11.27;6.47;;;9.50;99.90;;;;;;4948278;29;20063;-82
2021/05/18 04:19:49;;;;;;;13.32;6.85;;;9.50;99.90;;;;;;4948501;29;20047;-82
2021/05/18 04:23:07;;;;;;;13.00;7.53;;;9.50;99.90;;;;;;4946549;29;20035;-82
2021/05/18 04:39:35;;;;;;;12.27;6.97;;;9.60;99.90;;;;;;4947515;29;20111;-81
2021/05/18 04:50:25;;;;;;;13.75;7.90;;;9.80;99.90;;;;;;4947631;29;20055;-81
2021/05/18 04:52:32;;;;;;;14.48;8.35;;;9.80;99.90;;;;;;4946082;29;20035;-81
2021/05/18 04:58:56;;;;;;;14.93;8.40;;;9.90;99.90;;;;;;4946241;29;20040;-81
2021/05/18 05:03:36;;;;;;;18.23;9.02;;;10.00;99.90;;;;;;4947575;29;20111;-81
2021/05/18 05:16:29;;;;;;;17.13;11.43;;;10.20;99.90;;;;;;4961751;29;20031;-81
2021/05/18 05:18:55;;;;;;;18.17;12.93;;;10.20;99.90;;;;;;4947093;29;20035;-80
2021/05/18 05:21:23;;;;;;;19.52;11.60;;;10.20;99.90;;;;;;4961874;29;20031;-81
2021/05/18 05:23:49;;;;;;;21.63;12.40;;;10.20;99.90;;;;;;4947182;29;20075;-81
2021/05/18 05:26:15;;;;;;;16.83;12.63;;;10.20;99.90;;;;;;4947094;29;20035;-81
2021/05/18 05:28:40;;;;;;;20.55;12.48;;;10.20;99.90;;;;;;4952313;29;20078;-80
2021/05/18 05:31:06;;;;;;;20.35;12.88;;;10.20;99.90;;;;;;4951408;29;20035;-81
2021/05/18 05:33:32;;;;;;;22.02;14.15;;;10.20;99.90;;;;;;4955322;29;20487;-81
2021/05/18 05:35:57;;;;;;;21.80;16.02;;;10.30;99.90;;;;;;4955283;29;20523;-82
2021/05/18 05:38:24;;;;;;;18.92;13.20;;;10.30;99.90;;;;;;4957919;29;20027;-80
2021/05/18 05:40:50;;;;;;;23.80;16.35;;;10.30;99.90;;;;;;4945709;29;20071;-82
2021/05/18 05:43:16;;;;;;;24.13;15.73;;;10.30;99.90;;;;;;4944967;29;20027;-84
2021/05/18 05:45:42;;;;;;;25.13;15.55;;;10.30;99.90;;;;;;4949403;29;20094;-82
2021/05/18 05:48:08;;;;;;;24.88;17.13;;;10.30;99.90;;;;;;4950451;29;20120;-83
2021/05/18 05:50:33;;;;;;;23.80;16.17;;;10.30;99.90;;;;;;4949335;29;20036;-84
2021/05/18 05:52:59;;;;;;;17.80;12.75;;;10.20;99.90;;;;;;4949252;29;20031;-81
2021/05/18 05:55:25;;;;;;;19.35;13.68;;;10.30;99.90;;;;;;4950949;29;20070;-81
2021/05/18 05:57:52;;;;;;;15.65;9.82;;;10.10;99.90;;;;;;4951035;29;20035;-81
2021/05/18 06:00:18;;;;;;;20.65;13.18;;;10.10;99.90;;;;;;4954650;29;20039;-82
2021/05/18 06:02:44;;;;;;;15.35;10.98;;;10.10;99.90;;;;;;4959891;29;20031;-81
2021/05/18 06:05:10;;;;;;;14.98;10.48;;;10.00;99.90;;;;;;4959944;29;20032;-81
2021/05/18 06:07:35;;;;;;;13.02;9.10;;;10.00;99.90;;;;;;4957642;29;20083;-81
2021/05/18 06:10:09;;;;;;;13.32;9.55;;;9.90;99.90;;;;;;4966001;29;20046;-80
2021/05/18 06:12:51;;;;;;;14.00;10.25;;;10.00;99.90;;;;;;4969449;29;20043;-80
2021/05/18 06:16:04;;;;;;;12.52;9.13;;;10.10;99.90;;;;;;4967335;29;20031;-81
2021/05/18 06:29:49;;;;;;;25.17;16.45;;;10.40;99.90;;;;;;4930887;29;20032;-80
2021/05/18 06:43:04;;;;;;;28.35;18.92;;;10.60;99.90;;;;;;4964245;29;20039;-80
2021/05/18 06:46:05;;;;;;;29.50;18.38;;;10.60;99.90;;;;;;4948117;29;20028;-80
2021/05/18 06:48:21;;;;;;;31.95;21.73;;;10.70;99.90;;;;;;4948011;29;20035;-81
2021/05/18 06:50:47;;;;;;;33.63;22.00;;;10.90;99.90;;;;;;4948013;29;20055;-81
2021/05/18 06:53:13;;;;;;;39.75;26.13;;;11.00;99.90;;;;;;4949042;29;20063;-80
2021/05/18 06:55:39;;;;;;;43.08;30.02;;;10.90;99.90;;;;;;4964050;29;20032;-80
2021/05/18 06:58:07;;;;;;;38.25;26.20;;;10.90;99.90;;;;;;4949487;29;20063;-80
2021/05/18 07:00:38;;;;;;;37.40;25.63;;;10.90;99.90;;;;;;4963859;29;20043;-81
2021/05/18 07:03:06;;;;;;;36.30;25.38;;;10.90;99.90;;;;;;4964102;29;20437;-81
2021/05/18 07:10:42;;;;;;;41.13;26.08;;;10.90;99.90;;;;;;4949012;29;20039;-80
2021/05/18 07:13:09;;;;;;;43.05;26.33;;;10.80;99.90;;;;;;4963792;29;20066;-81
2021/05/18 07:15:35;;;;;;;37.33;24.80;;;10.80;99.90;;;;;;4963638;29;20071;-82
2021/05/18 07:18:00;;;;;;;39.88;27.10;;;10.80;99.90;;;;;;4963636;29;20032;-80
2021/05/18 07:20:28;;;;;;;32.80;21.83;;;10.70;99.90;;;;;;4948860;29;20043;-81
2021/05/18 07:22:56;;;;;;;30.20;19.30;;;10.60;99.90;;;;;;4947588;29;20480;-82
2021/05/18 07:25:22;;;;;;;31.30;20.30;;;10.70;99.90;;;;;;4963297;29;20170;-80
2021/05/18 07:27:49;;;;;;;22.75;15.48;;;10.70;99.90;;;;;;4947663;29;20036;-79
2021/05/18 07:30:15;;;;;;;23.42;16.58;;;10.50;99.90;;;;;;4947351;29;20036;-81
2021/05/18 07:32:42;;;;;;;18.35;12.57;;;10.50;99.90;;;;;;4947737;29;20031;-80
2021/05/18 07:35:09;;;;;;;18.00;13.00;;;10.50;99.90;;;;;;4947265;29;20055;-81
2021/05/18 07:37:35;;;;;;;19.20;14.43;;;10.50;99.90;;;;;;4948588;29;20036;-81
2021/05/18 07:40:01;;;;;;;21.48;15.15;;;10.50;99.90;;;;;;4947109;29;20481;-79
2021/05/18 07:42:28;;;;;;;19.30;13.15;;;10.60;99.90;;;;;;4947238;29;20036;-82
2021/05/18 07:44:54;;;;;;;19.98;13.55;;;10.60;99.90;;;;;;4948371;29;20035;-82
2021/05/18 07:47:21;;;;;;;18.88;13.45;;;10.70;99.90;;;;;;4931338;29;20043;-81
2021/05/18 07:49:48;;;;;;;33.38;23.42;;;10.90;99.90;;;;;;4947136;29;20063;-80
2021/05/18 08:05:37;;;;;;;9.90;5.32;;;9.90;99.90;;;;;;4945926;29;20044;-82
2021/05/18 08:08:02;;;;;;;6.20;3.63;;;9.80;99.90;;;;;;4946861;29;20067;-81
2021/05/18 08:12:54;;;;;;;4.00;2.90;;;9.60;99.90;;;;;;4947978;29;20031;-80
2021/05/18 09:01:58;;;;;;;22.25;15.35;;;11.50;99.90;;;;;;4962424;29;20057;-81
2021/05/18 09:33:26;;;;;;;21.75;16.88;;;11.70;99.90;;;;;;4949575;29;20040;-80
2021/05/18 10:26:33;;;;;;;5.95;4.90;;;11.70;99.90;;;;;;4968980;28;20031;-78
2021/05/18 10:36:07;;;;;;;12.43;8.27;;;11.70;99.90;;;;;;4968701;28;20102;-80
2021/05/18 10:38:39;;;;;;;15.32;8.82;;;11.70;99.90;;;;;;4968457;28;20117;-81
2021/05/18 10:41:18;;;;;;;11.00;7.80;;;11.70;99.90;;;;;;4967408;29;20039;-81
2021/05/18 10:44:01;;;;;;;11.35;7.97;;;11.70;99.90;;;;;;4967301;29;20063;-81
2021/05/18 10:46:29;;;;;;;7.95;5.88;;;12.00;99.90;;;;;;4967226;29;20038;-81
2021/05/18 10:49:03;;;;;;;8.82;6.15;;;12.20;99.90;;;;;;4968767;28;20035;-81
2021/05/18 10:51:39;;;;;;;10.02;6.03;;;12.70;99.90;;;;;;4967198;29;20059;-81
2021/05/18 10:54:08;;;;;;;7.65;4.88;;;13.40;99.90;;;;;;4968289;28;20042;-81
2021/05/18 10:56:57;;;;;;;7.53;3.87;;;14.10;99.90;;;;;;4951081;29;20027;-82
2021/05/18 10:59:37;;;;;;;9.18;5.28;;;14.10;99.90;;;;;;4967185;29;20295;-81
2021/05/18 11:02:16;;;;;;;6.20;4.32;;;14.20;99.90;;;;;;4968323;28;20039;-81
2021/05/18 11:05:05;;;;;;;5.32;4.32;;;13.70;99.90;;;;;;4968216;28;20027;-83
2021/05/18 11:07:36;;;;;;;6.50;4.95;;;13.70;99.90;;;;;;4930070;29;20063;-80
2021/05/18 11:10:10;;;;;;;6.03;4.30;;;13.50;99.90;;;;;;4930351;29;20046;-81
2021/05/18 11:12:37;;;;;;;5.72;4.25;;;13.60;99.90;;;;;;4930787;29;20048;-82
2021/05/18 11:15:17;;;;;;;6.18;4.07;;;13.40;99.90;;;;;;4930726;29;20094;-82
2021/05/18 11:17:46;;;;;;;;;;;13.40;99.90;;;;;;4931028;29;20051;-82
2021/05/18 11:20:20;;;;;;;6.25;4.38;;;13.50;99.90;;;;;;4930387;29;19957;-81
2021/05/18 11:25:36;;;;;;;7.03;4.22;;;13.90;99.90;;;;;;4959644;29;20043;-81
2021/05/18 11:28:13;;;;;;;5.47;3.33;;;13.90;99.90;;;;;;4949388;29;20049;-80
2021/05/18 11:30:39;;;;;;;6.25;5.55;;;14.10;99.90;;;;;;4949424;29;20031;-82
2021/05/18 11:33:05;;;;;;;8.13;5.13;;;14.40;99.90;;;;;;4949556;29;20138;-82
2021/05/18 11:35:32;;;;;;;4.50;3.55;;;14.60;99.90;;;;;;4965309;29;20514;-80
2021/05/18 11:38:18;;;;;;;5.68;4.43;;;15.10;99.90;;;;;;4949375;29;20047;-81
2021/05/18 11:40:50;;;;;;;6.78;4.32;;;15.50;99.90;;;;;;4914142;29;20581;-81
2021/05/18 11:43:35;;;;;;;5.75;4.20;;;15.10;99.90;;;;;;4914224;29;20027;-82
2021/05/18 11:46:12;;;;;;;5.93;3.78;;;15.30;99.90;;;;;;4982279;28;20050;-83
2021/05/18 11:49:03;;;;;;;4.25;2.75;;;15.20;99.90;;;;;;4966269;29;20036;-81
2021/05/18 11:51:42;;;;;;;5.80;3.78;;;15.60;99.90;;;;;;4967291;28;20043;-82
2021/05/18 11:54:08;;;;;;;5.32;3.83;;;15.50;99.90;;;;;;4966341;29;20027;-81
2021/05/18 11:56:36;;;;;;;3.72;2.25;;;15.60;99.90;;;;;;4966997;29;20066;-82
2021/05/18 11:59:19;;;;;;;6.35;3.70;;;16.00;99.90;;;;;;4965976;29;20035;-83
2021/05/18 12:01:50;;;;;;;4.43;2.50;;;15.60;99.90;;;;;;4966096;29;20046;-82
2021/05/18 12:04:18;;;;;;;3.80;2.50;;;15.40;99.90;;;;;;4967422;28;20020;-81
2021/05/18 12:07:04;;;;;;;4.15;2.70;;;15.30;99.90;;;;;;4990333;23;20055;-82
2021/05/18 12:09:33;;;;;;;4.65;3.28;;;15.30;99.90;;;;;;4950471;29;20106;-82
2021/05/18 12:12:04;;;;;;;5.40;2.75;;;15.50;99.90;;;;;;4966195;29;20031;-82
2021/05/18 12:14:31;;;;;;;2.67;1.00;;;15.80;99.90;;;;;;4966237;28;20110;-83
2021/05/18 12:16:58;;;;;;;2.75;1.00;;;15.10;99.90;;;;;;4967527;28;20372;-81
2021/05/18 12:19:24;;;;;;;2.08;0.90;;;15.50;99.90;;;;;;4950145;29;20043;-82
2021/05/18 12:21:54;;;;;;;2.90;0.82;;;15.90;99.90;;;;;;4950390;29;20063;-83
2021/05/18 12:24:21;;;;;;;;;;;16.20;99.90;;;;;;4967757;28;20114;-81
2021/05/18 12:26:59;;;;;;;2.65;0.65;;;16.60;99.90;;;;;;4966075;28;19934;-81
2021/05/18 12:29:28;;;;;;;3.88;0.90;;;16.50;99.90;;;;;;4966094;28;20151;-81
2021/05/18 12:31:54;;;;;;;6.00;0.90;;;16.30;99.90;;;;;;4966184;29;20039;-82
2021/05/18 12:34:30;;;;;;;5.30;1.70;;;16.10;99.90;;;;;;4966016;29;20028;-82
2021/05/18 12:36:56;;;;;;;4.72;2.00;;;14.30;99.90;;;;;;4965574;29;20031;-81
2021/05/18 12:39:22;;;;;;;3.83;2.13;;;13.40;99.90;;;;;;4949305;29;20035;-83
2021/05/18 12:42:02;;;;;;;3.15;1.05;;;12.90;99.90;;;;;;4978437;28;20062;-82
2021/05/18 12:45:01;;;;;;;2.47;0.90;;;12.40;99.90;;;;;;4962395;29;20031;-81
2021/05/18 12:47:39;;;;;;;1.58;0.70;;;12.20;99.90;;;;;;4963950;28;20100;-82
2021/05/18 12:50:10;;;;;;;3.53;0.50;;;12.40;99.90;;;;;;4953400;29;20114;-81
2021/05/18 12:52:41;;;;;;;1.52;0.40;;;12.50;99.90;;;;;;4964371;28;20042;-82
2021/05/18 12:55:25;;;;;;;1.73;0.50;;;12.50;99.90;;;;;;4945755;29;20099;-81
2021/05/18 12:57:59;;;;;;;2.53;0.55;;;12.60;99.90;;;;;;4947265;29;20054;-81
2021/05/18 13:00:36;;;;;;;3.78;0.40;;;13.50;99.90;;;;;;4946403;29;20060;-83
2021/05/18 13:03:17;;;;;;;1.40;0.60;;;14.20;99.90;;;;;;4930451;29;20070;-81
2021/05/18 13:05:49;;;;;;;0.90;0.32;;;14.30;99.90;;;;;;4929790;29;20038;-81
2021/05/18 13:08:16;;;;;;;1.30;0.50;;;14.60;99.90;;;;;;4946305;29;20047;-82
2021/05/18 13:13:17;;;;;;;1.10;0.25;;;14.90;99.90;;;;;;4947297;29;20055;-82
2021/05/18 13:15:43;;;;;;;1.10;0.30;;;14.80;99.90;;;;;;4947185;29;20078;-82
2021/05/18 13:18:10;;;;;;;0.98;0.30;;;14.80;99.90;;;;;;4946027;29;20031;-82
2021/05/18 13:20:50;;;;;;;0.88;0.25;;;14.70;99.90;;;;;;4945841;29;20047;-81
2021/05/18 13:23:41;;;;;;;0.88;0.20;;;14.60;99.90;;;;;;4946111;29;20071;-82
2021/05/18 13:26:26;;;;;;;0.80;0.30;;;15.00;99.90;;;;;;4963569;29;20031;-82
2021/05/18 13:28:58;;;;;;;0.40;0.20;;;15.30;99.90;;;;;;4966592;28;20032;-82
2021/05/18 13:31:24;;;;;;;0.70;0.20;;;15.40;99.90;;;;;;4964985;28;20032;-82
2021/05/18 13:33:50;;;;;;;0.50;0.10;;;15.50;99.90;;;;;;4966537;28;20037;-83
2021/05/18 13:36:16;;;;;;;0.47;0.20;;;16.10;99.90;;;;;;4964940;29;20110;-82
2021/05/18 13:38:42;;;;;;;0.68;0.20;;;15.60;99.90;;;;;;4966433;28;20039;-83
2021/05/18 13:41:07;;;;;;;0.55;0.28;;;16.00;99.90;;;;;;4966290;28;20047;-83
2021/05/18 13:43:33;;;;;;;1.27;0.30;;;16.00;99.90;;;;;;4964977;29;20038;-82
2021/05/18 13:45:59;;;;;;;1.52;0.30;;;16.00;99.90;;;;;;4980832;28;20027;-82
2021/05/18 13:48:25;;;;;;;1.70;0.50;;;15.80;99.90;;;;;;4981044;28;20023;-82
2021/05/18 13:50:51;;;;;;;1.38;0.60;;;15.30;99.90;;;;;;4964850;29;20510;-82
2021/05/18 13:53:18;;;;;;;1.95;0.50;;;15.00;99.90;;;;;;4965117;29;20122;-82
2021/05/18 13:55:44;;;;;;;1.40;0.50;;;14.90;99.90;;;;;;4980615;28;20404;-82
2021/05/18 13:58:10;;;;;;;0.82;0.30;;;14.80;99.90;;;;;;4966070;28;20035;-83
2021/05/18 14:00:36;;;;;;;1.92;0.50;;;14.90;99.90;;;;;;4965970;28;20063;-81
2021/05/18 14:03:03;;;;;;;2.88;0.43;;;15.00;99.90;;;;;;4980881;28;20033;-82
2021/05/18 14:05:29;;;;;;;1.00;0.40;;;15.30;99.90;;;;;;4969218;28;20043;-82
2021/05/18 14:10:46;;;;;;;1.85;0.50;;;15.20;99.90;;;;;;4969217;28;20111;-81
2021/05/18 14:13:12;;;;;;;1.55;0.70;;;15.30;99.90;;;;;;4967859;29;20083;-82
2021/05/18 14:15:39;;;;;;;1.90;0.45;;;15.20;99.90;;;;;;4967831;28;20031;-82
2021/05/18 14:18:05;;;;;;;2.28;0.70;;;15.40;99.90;;;;;;4967942;29;20037;-81
2021/05/18 14:20:31;;;;;;;2.67;0.70;;;15.40;99.90;;;;;;4967701;29;20067;-81
2021/05/18 14:22:56;;;;;;;3.47;0.82;;;15.40;99.90;;;;;;4969055;28;20031;-81
2021/05/18 14:25:22;;;;;;;5.60;2.03;;;15.50;99.90;;;;;;4969381;28;20035;-82
2021/05/18 14:27:48;;;;;;;3.33;1.50;;;15.60;99.90;;;;;;4952008;29;20038;-81
2021/05/18 14:30:14;;;;;;;4.60;1.50;;;16.10;99.90;;;;;;4951720;29;20166;-81
2021/05/18 14:32:41;;;;;;;4.18;1.90;;;15.70;99.90;;;;;;4967910;29;20062;-81
2021/05/18 14:35:10;;;;;;;3.97;1.30;;;15.40;99.90;;;;;;4967588;29;20023;-82
2021/05/18 14:37:44;;;;;;;3.40;1.52;;;15.20;99.90;;;;;;4968987;28;20038;-81
2021/05/18 14:45:31;;;;;;;4.63;1.85;;;15.10;99.90;;;;;;4968531;28;20515;-83
2021/05/18 14:55:58;;;;;;;2.50;1.05;;;15.00;99.90;;;;;;4964635;28;20094;-83
2021/05/18 14:58:24;;;;;;;1.90;0.90;;;14.90;99.90;;;;;;4967248;29;20027;-82
2021/05/18 15:00:50;;;;;;;2.67;0.70;;;14.90;99.90;;;;;;4968594;28;20428;-83
2021/05/18 15:03:16;;;;;;;2.25;0.80;;;15.00;99.90;;;;;;4968537;28;20027;-83
2021/05/18 15:05:41;;;;;;;2.00;0.95;;;15.10;99.90;;;;;;4965934;29;20031;-83
2021/05/18 15:08:07;;;;;;;3.90;1.00;;;15.00;99.90;;;;;;4968190;28;20027;-83
2021/05/18 15:10:34;;;;;;;2.85;0.68;;;15.00;99.90;;;;;;4950458;29;20035;-83
2021/05/18 15:13:01;;;;;;;3.40;1.38;;;15.00;99.90;;;;;;4949294;29;20027;-81
2021/05/18 15:15:27;;;;;;;4.65;0.95;;;14.90;99.90;;;;;;4948871;29;20031;-84
2021/05/18 15:17:56;;;;;;;3.58;0.80;;;14.90;99.90;;;;;;4948994;29;20032;-84
2021/05/18 15:20:22;;;;;;;3.20;1.23;;;15.00;99.90;;;;;;4948708;29;20055;-83
2021/05/18 15:22:48;;;;;;;2.92;1.20;;;15.20;99.90;;;;;;4947717;29;20055;-83
2021/05/18 15:25:15;;;;;;;3.30;1.63;;;15.20;99.90;;;;;;4959323;29;20500;-81
2021/05/18 15:27:41;;;;;;;6.43;1.85;;;15.00;99.90;;;;;;4942552;29;20964;-83
2021/05/18 15:30:08;;;;;;;4.05;1.77;;;15.00;99.90;;;;;;4958094;28;20023;-82
2021/05/18 15:32:34;;;;;;;8.30;3.85;;;14.90;99.90;;;;;;4958813;28;20043;-84
2021/05/18 15:35:00;;;;;;;3.22;2.67;;;14.70;99.90;;;;;;4958024;28;20023;-83
2021/05/18 15:37:26;;;;;;;4.70;2.80;;;14.80;99.90;;;;;;4958346;29;20027;-83
2021/05/18 15:39:51;;;;;;;3.10;2.25;;;15.10;99.90;;;;;;4970439;28;20047;-82
2021/05/18 15:42:19;;;;;;;4.30;2.17;;;15.50;99.90;;;;;;4959151;28;20159;-82
2021/05/18 15:44:44;;;;;;;3.03;1.75;;;15.50;99.90;;;;;;4948245;29;20465;-83
2021/05/18 15:47:10;;;;;;;3.05;2.05;;;15.50;99.90;;;;;;4948289;29;20073;-84
2021/05/18 15:49:36;;;;;;;4.68;1.98;;;15.50;99.90;;;;;;4946895;29;20028;-83
2021/05/18 15:52:02;;;;;;;3.67;1.55;;;15.30;99.90;;;;;;4957776;29;20027;-83
2021/05/18 15:54:28;;;;;;;4.40;2.08;;;15.20;99.90;;;;;;4951620;28;20117;-84
2021/05/18 15:56:53;;;;;;;2.47;1.20;;;15.10;99.90;;;;;;4963761;29;20039;-83
2021/05/18 15:59:19;;;;;;;4.15;1.88;;;15.00;99.90;;;;;;4961519;28;20075;-84
2021/05/18 16:01:45;;;;;;;3.08;1.20;;;14.70;99.90;;;;;;4955315;29;20033;-83
2021/05/18 16:04:12;;;;;;;3.38;0.90;;;14.90;99.90;;;;;;4957903;29;20040;-82
2021/05/18 16:06:43;;;;;;;1.67;0.77;;;14.90;99.90;;;;;;4966841;28;20107;-82
2021/05/18 16:09:12;;;;;;;2.60;0.63;;;14.90;99.90;;;;;;4967325;28;20066;-82
2021/05/18 16:11:39;;;;;;;1.80;0.40;;;15.00;99.90;;;;;;4967351;28;20119;-84
2021/05/18 16:14:05;;;;;;;2.10;0.35;;;15.40;99.90;;;;;;4966556;28;20031;-84
2021/05/18 16:16:31;;;;;;;3.33;0.43;;;15.20;99.90;;;;;;4954579;28;20956;-85
2021/05/18 16:18:57;;;;;;;3.05;0.52;;;15.30;99.90;;;;;;4961845;29;20031;-83
2021/05/18 16:21:24;;;;;;;1.63;0.70;;;15.40;99.90;;;;;;4953564;29;20046;-84
2021/05/18 16:23:53;;;;;;;1.60;0.38;;;15.60;99.90;;;;;;4967359;28;20027;-83
2021/05/18 16:26:25;;;;;;;2.30;0.40;;;15.60;99.90;;;;;;4966396;28;20031;-85
2021/05/18 16:28:51;;;;;;;3.15;0.40;;;15.60;99.90;;;;;;4965945;29;20054;-83
2021/05/18 16:31:17;;;;;;;1.58;0.40;;;15.60;99.90;;;;;;4960000;28;20035;-84
2021/05/18 16:33:43;;;;;;;1.70;0.32;;;15.50;99.90;;;;;;4971157;23;20046;-81
2021/05/18 16:36:12;;;;;;;3.35;0.43;;;15.70;99.90;;;;;;4953711;29;20036;-84
2021/05/18 16:39:29;;;;;;;2.28;0.40;;;15.90;99.90;;;;;;4957420;28;20027;-83
2021/05/18 16:41:58;;;;;;;2.03;0.30;;;16.00;99.90;;;;;;4926811;29;20086;-82
2021/05/18 16:44:27;;;;;;;1.00;0.30;;;16.10;99.90;;;;;;4911865;29;20028;-82
2021/05/18 16:46:52;;;;;;;1.73;0.30;;;16.20;99.90;;;;;;4926889;29;20064;-82
2021/05/18 16:49:19;;;;;;;1.45;0.30;;;15.70;99.90;;;;;;4952491;28;20047;-84
2021/05/18 16:51:45;;;;;;;1.92;0.50;;;15.40;99.90;;;;;;4943964;29;20035;-81
2021/05/18 16:54:11;;;;;;;1.42;0.43;;;15.60;99.90;;;;;;4941258;29;20035;-83
2021/05/18 16:56:38;;;;;;;2.38;0.40;;;15.70;99.90;;;;;;4943818;29;20070;-83
2021/05/18 16:59:04;;;;;;;3.30;0.30;;;15.80;99.90;;;;;;4947191;29;20024;-83
2021/05/18 17:01:30;;;;;;;2.60;0.40;;;15.30;99.90;;;;;;4940860;29;20044;-84
2021/05/18 17:03:56;;;;;;;2.35;0.32;;;15.00;99.90;;;;;;4950078;29;20039;-83
2021/05/18 17:06:21;;;;;;;2.55;0.30;;;15.10;99.90;;;;;;4952462;28;20117;-83
2021/05/18 17:08:47;;;;;;;1.73;0.40;;;15.30;99.90;;;;;;4962311;29;20043;-82
2021/05/18 17:11:13;;;;;;;1.30;0.40;;;15.40;99.90;;;;;;4965625;29;20399;-80
2021/05/18 17:13:40;;;;;;;0.93;0.30;;;15.20;99.90;;;;;;4967177;28;20032;-82
2021/05/18 17:16:06;;;;;;;2.13;0.30;;;14.90;99.90;;;;;;4965732;29;20043;-82
2021/05/18 17:18:32;;;;;;;1.58;0.40;;;14.70;99.90;;;;;;4965550;28;20094;-82
2021/05/18 17:20:58;;;;;;;1.67;0.30;;;14.60;99.90;;;;;;4966857;28;20047;-83
2021/05/18 17:23:24;;;;;;;2.25;0.38;;;14.70;99.90;;;;;;4966861;28;20114;-82
2021/05/18 17:25:50;;;;;;;1.80;0.30;;;14.90;99.90;;;;;;4965800;29;20395;-83
2021/05/18 17:28:16;;;;;;;1.50;0.30;;;14.90;99.90;;;;;;4965389;29;20032;-83
2021/05/18 17:30:42;;;;;;;0.88;0.30;;;14.70;99.90;;;;;;4966841;28;20035;-82
2021/05/18 17:33:11;;;;;;;2.25;0.20;;;14.70;99.90;;;;;;4966671;28;20086;-81
2021/05/18 17:35:38;;;;;;;1.10;0.30;;;15.00;99.90;;;;;;4965233;29;20578;-82
2021/05/18 17:38:04;;;;;;;1.20;0.20;;;15.00;99.90;;;;;;4965762;28;20130;-83
2021/05/18 17:40:30;;;;;;;0.70;0.20;;;14.50;99.90;;;;;;4947670;29;20074;-82
2021/05/18 17:42:56;;;;;;;2.25;0.30;;;14.40;99.90;;;;;;4948928;29;20024;-82